You are listening to:
KJFK Tower - New York, New York, United States

KJFK 030451Z 23011KT 10SM CLR 00/M09 A3007 RMK AO2 SLP183 T00001089 400171056

If stream doesn't start automatically press the play button
If stream stops then reload player then press play